createdAt,value
2017-11-25T00:00:57.253Z,35.47
2017-11-25T00:03:26.647Z,30.50
2017-11-25T00:05:56.025Z,32.27
2017-11-25T00:08:25.394Z,34.10
2017-11-25T00:10:54.796Z,32.83
2017-11-25T00:13:24.200Z,35.93
2017-11-25T00:15:53.607Z,39.50
2017-11-25T00:18:22.988Z,35.10
2017-11-25T00:20:52.414Z,34.43
2017-11-25T00:23:21.797Z,34.03
2017-11-25T00:25:51.203Z,37.40
2017-11-25T00:28:20.572Z,36.30
2017-11-25T00:30:49.994Z,31.30
2017-11-25T00:33:19.383Z,34.93
2017-11-25T00:35:48.821Z,35.93
2017-11-25T00:38:18.185Z,38.30
2017-11-25T00:40:47.598Z,44.83
2017-11-25T00:43:16.960Z,38.07
2017-11-25T00:45:46.369Z,48.90
2017-11-25T00:48:15.737Z,36.43
2017-11-25T00:50:45.120Z,35.00
2017-11-25T00:53:14.486Z,41.07
2017-11-25T00:55:43.898Z,39.90
2017-11-25T00:58:13.280Z,42.47
2017-11-25T01:00:42.681Z,39.03
2017-11-25T01:03:12.057Z,44.27
2017-11-25T01:05:41.444Z,45.30
2017-11-25T01:08:10.828Z,49.33
2017-11-25T01:10:40.235Z,41.90
2017-11-25T01:13:09.621Z,41.57
2017-11-25T01:15:39.019Z,45.80
2017-11-25T01:18:08.409Z,38.50
2017-11-25T01:20:37.810Z,37.53
2017-11-25T01:23:07.186Z,42.33
2017-11-25T01:25:36.587Z,34.33
2017-11-25T01:28:05.976Z,40.37
2017-11-25T01:30:35.382Z,38.03
2017-11-25T01:33:04.769Z,45.60
2017-11-25T01:35:34.169Z,39.97
2017-11-25T01:38:03.621Z,50.10
2017-11-25T01:40:33.048Z,38.63
2017-11-25T01:43:02.431Z,43.40
2017-11-25T01:45:31.841Z,40.80
2017-11-25T01:48:01.231Z,32.90
2017-11-25T01:50:30.637Z,40.77
2017-11-25T01:53:00.032Z,31.77
2017-11-25T01:55:29.425Z,35.53
2017-11-25T01:57:58.800Z,33.47
2017-11-25T02:00:28.204Z,31.00
2017-11-25T02:02:57.607Z,33.10
2017-11-25T02:05:26.992Z,35.57
2017-11-25T02:07:56.360Z,32.10
2017-11-25T02:10:25.757Z,37.20
2017-11-25T02:12:55.142Z,31.67
2017-11-25T02:15:24.582Z,35.30
2017-11-25T02:17:53.971Z,28.53
2017-11-25T02:20:23.379Z,34.50
2017-11-25T02:22:52.752Z,31.03
2017-11-25T02:25:22.145Z,36.83
2017-11-25T02:27:51.540Z,27.70
2017-11-25T02:30:20.942Z,34.73
2017-11-25T02:32:50.310Z,32.23
2017-11-25T02:35:19.702Z,36.93
2017-11-25T02:37:49.084Z,36.00
2017-11-25T02:40:18.481Z,37.83
2017-11-25T02:42:47.852Z,36.73
2017-11-25T02:45:17.258Z,41.23
2017-11-25T02:47:46.639Z,48.10
2017-11-25T02:50:16.015Z,38.53
2017-11-25T02:52:45.416Z,40.50
2017-11-25T02:55:15.913Z,36.70
2017-11-25T02:57:45.334Z,35.27
2017-11-25T03:00:14.704Z,36.20
2017-11-25T03:02:44.111Z,38.97
2017-11-25T03:05:13.480Z,38.00
2017-11-25T03:07:42.894Z,40.17
2017-11-25T03:10:12.278Z,41.93
2017-11-25T03:12:41.679Z,39.23
2017-11-25T03:15:11.050Z,38.20
2017-11-25T03:17:40.449Z,34.30
2017-11-25T03:20:09.847Z,38.67
2017-11-25T03:22:39.265Z,39.17
2017-11-25T03:25:08.631Z,36.53
2017-11-25T03:27:38.043Z,32.93
2017-11-25T03:30:07.405Z,39.53
2017-11-25T03:32:36.814Z,36.70
2017-11-25T03:35:06.186Z,40.20
2017-11-25T03:37:35.607Z,40.37
2017-11-25T03:40:04.969Z,45.30
2017-11-25T03:42:34.372Z,43.60
2017-11-25T03:45:03.757Z,38.00
2017-11-25T03:47:33.160Z,37.80
2017-11-25T03:50:02.534Z,39.30
2017-11-25T03:52:31.931Z,41.70
2017-11-25T03:55:01.311Z,37.20
2017-11-25T03:57:30.718Z,36.20
2017-11-25T04:00:00.097Z,37.23
2017-11-25T04:02:29.510Z,46.20
2017-11-25T04:04:58.890Z,36.90
2017-11-25T04:07:28.310Z,44.67
2017-11-25T04:09:57.679Z,39.70
2017-11-25T04:12:27.104Z,41.27
2017-11-25T04:14:56.493Z,39.13
2017-11-25T04:17:25.900Z,40.67
2017-11-25T04:19:55.277Z,37.10
2017-11-25T04:22:24.704Z,37.23
2017-11-25T04:24:54.091Z,40.77
2017-11-25T04:27:23.489Z,37.77
2017-11-25T04:29:52.910Z,43.57
2017-11-25T04:32:22.300Z,41.20
2017-11-25T04:34:51.697Z,40.10
2017-11-25T04:37:21.085Z,48.70
2017-11-25T04:39:50.481Z,39.20
2017-11-25T04:42:19.995Z,36.47
2017-11-25T04:44:49.405Z,46.40
2017-11-25T04:47:18.776Z,41.67
2017-11-25T04:49:48.199Z,39.97
2017-11-25T04:52:17.568Z,41.50
2017-11-25T04:54:46.953Z,45.93
2017-11-25T04:57:16.359Z,42.73
2017-11-25T04:59:45.781Z,36.40
2017-11-25T05:02:15.152Z,42.00
2017-11-25T05:04:44.673Z,41.10
2017-11-25T05:07:14.041Z,43.83
2017-11-25T05:09:43.451Z,41.53
2017-11-25T05:12:12.860Z,41.20
2017-11-25T05:14:42.250Z,46.87
2017-11-25T05:17:11.627Z,38.80
2017-11-25T05:19:41.028Z,37.90
2017-11-25T05:22:10.404Z,43.30
2017-11-25T05:24:39.798Z,39.97
2017-11-25T05:27:09.186Z,41.10
2017-11-25T05:29:38.576Z,37.33
2017-11-25T05:32:07.968Z,42.07
2017-11-25T05:34:37.385Z,38.40
2017-11-25T05:37:06.799Z,37.27
2017-11-25T05:39:36.245Z,38.23
2017-11-25T05:42:05.617Z,36.80
2017-11-25T05:44:34.993Z,33.90
2017-11-25T05:47:04.429Z,35.67
2017-11-25T05:49:33.817Z,42.13
2017-11-25T05:52:03.209Z,35.27
2017-11-25T05:54:32.588Z,36.43
2017-11-25T05:57:01.998Z,38.07
2017-11-25T05:59:31.369Z,37.60
2017-11-25T06:02:00.773Z,34.43
2017-11-25T06:04:30.156Z,39.07
2017-11-25T06:06:59.589Z,37.30
2017-11-25T06:09:28.961Z,37.27
2017-11-25T06:11:58.391Z,37.27
2017-11-25T06:14:27.789Z,36.53
2017-11-25T06:16:57.225Z,35.43
2017-11-25T06:19:26.689Z,35.40
2017-11-25T06:21:56.080Z,30.40
2017-11-25T06:24:25.449Z,28.77
2017-11-25T06:26:54.857Z,28.80
2017-11-25T06:29:24.243Z,27.60
2017-11-25T06:31:53.653Z,25.53
2017-11-25T06:34:23.025Z,37.30
2017-11-25T06:36:52.450Z,30.27
2017-11-25T06:39:21.841Z,31.13
2017-11-25T06:41:51.248Z,26.23
2017-11-25T06:44:20.646Z,28.87
2017-11-25T06:46:50.437Z,26.93
2017-11-25T06:49:20.389Z,34.27
2017-11-25T06:51:51.047Z,25.03
2017-11-25T06:54:21.185Z,28.67
2017-11-25T06:56:50.749Z,28.70
2017-11-25T06:59:20.129Z,30.17
2017-11-25T07:01:49.677Z,29.73
2017-11-25T07:04:19.140Z,21.60
2017-11-25T07:06:48.602Z,19.53
2017-11-25T07:09:17.965Z,18.23
2017-11-25T07:11:47.372Z,9.90
2017-11-25T07:14:16.759Z,9.80
2017-11-25T07:16:46.169Z,11.77
2017-11-25T07:19:15.549Z,9.60
2017-11-25T07:21:44.941Z,7.60
2017-11-25T07:24:14.334Z,6.30
2017-11-25T07:26:43.750Z,8.00
2017-11-25T07:29:13.129Z,7.83
2017-11-25T07:31:42.526Z,7.50
2017-11-25T07:34:11.919Z,7.50
2017-11-25T07:36:41.345Z,7.50
2017-11-25T07:39:10.737Z,6.33
2017-11-25T07:41:40.157Z,7.43
2017-11-25T07:44:09.589Z,6.10
2017-11-25T07:46:38.971Z,5.03
2017-11-25T07:49:08.382Z,8.53
2017-11-25T07:51:37.767Z,14.83
2017-11-25T07:54:07.169Z,5.13
2017-11-25T07:56:36.541Z,4.00
2017-11-25T07:59:05.986Z,5.07
2017-11-25T08:01:35.362Z,3.90
2017-11-25T08:04:04.780Z,5.97
2017-11-25T08:06:34.160Z,3.70
2017-11-25T08:09:03.588Z,3.73
2017-11-25T08:11:32.958Z,4.37
2017-11-25T08:14:02.359Z,3.93
2017-11-25T08:16:31.770Z,5.30
2017-11-25T08:19:01.204Z,5.90
2017-11-25T08:21:30.584Z,9.23
2017-11-25T08:23:59.977Z,4.40
2017-11-25T08:26:29.377Z,5.03
2017-11-25T08:28:58.791Z,4.40
2017-11-25T08:31:28.167Z,5.83
2017-11-25T08:33:57.588Z,2.47
2017-11-25T08:36:26.966Z,3.50
2017-11-25T08:38:56.384Z,3.28
2017-11-25T08:41:25.787Z,2.57
2017-11-25T08:43:55.181Z,3.43
2017-11-25T08:46:24.569Z,3.20
2017-11-25T08:48:53.949Z,1.97
2017-11-25T08:51:23.319Z,4.07
2017-11-25T08:53:52.717Z,3.00
2017-11-25T08:56:22.099Z,2.50
2017-11-25T08:58:51.515Z,2.70
2017-11-25T09:01:20.918Z,4.80
2017-11-25T09:03:50.340Z,6.03
2017-11-25T09:06:19.725Z,2.83
2017-11-25T09:08:49.133Z,2.30
2017-11-25T09:11:18.557Z,2.30
2017-11-25T09:13:47.960Z,5.87
2017-11-25T09:16:17.346Z,2.67
2017-11-25T09:18:46.743Z,4.93
2017-11-25T09:21:16.126Z,3.10
2017-11-25T09:23:45.541Z,4.20
2017-11-25T09:26:14.946Z,3.03
2017-11-25T09:28:44.410Z,2.93
2017-11-25T09:31:13.804Z,3.23
2017-11-25T09:33:43.238Z,2.63
2017-11-25T09:36:12.614Z,5.73
2017-11-25T09:38:42.025Z,4.47
2017-11-25T09:41:11.391Z,4.40
2017-11-25T09:43:40.921Z,4.60
2017-11-25T09:46:10.307Z,4.97
2017-11-25T09:48:39.681Z,2.77
2017-11-25T09:51:09.146Z,2.78
2017-11-25T09:53:38.528Z,3.73
2017-11-25T09:56:07.930Z,2.33
2017-11-25T09:58:37.818Z,3.37
2017-11-25T10:01:07.245Z,4.37
2017-11-25T10:03:36.668Z,3.80
2017-11-25T10:06:07.143Z,4.60
2017-11-25T10:08:36.525Z,5.83
2017-11-25T10:11:06.705Z,4.30
2017-11-25T10:13:36.065Z,9.73
2017-11-25T10:16:05.713Z,4.63
2017-11-25T10:18:35.103Z,5.47
2017-11-25T10:21:04.542Z,4.10
2017-11-25T10:23:34.004Z,3.40
2017-11-25T10:26:03.456Z,7.20
2017-11-25T10:28:32.858Z,6.60
2017-11-25T10:31:02.346Z,9.90
2017-11-25T10:33:31.756Z,3.80
2017-11-25T10:36:01.169Z,3.40
2017-11-25T10:38:30.562Z,5.13
2017-11-25T10:40:59.995Z,3.87
2017-11-25T10:43:29.364Z,3.10
2017-11-25T10:45:58.751Z,6.60
2017-11-25T10:48:28.142Z,3.20
2017-11-25T10:50:57.636Z,4.60
2017-11-25T10:53:27.017Z,3.13
2017-11-25T10:55:56.444Z,6.33
2017-11-25T10:58:25.852Z,2.87
2017-11-25T11:00:55.275Z,3.93
2017-11-25T11:03:24.676Z,5.47
2017-11-25T11:05:54.084Z,6.20
2017-11-25T11:08:23.485Z,7.40
2017-11-25T11:10:52.923Z,11.43
2017-11-25T11:13:22.326Z,6.00
2017-11-25T11:15:51.725Z,9.50
2017-11-25T11:18:21.134Z,7.17
2017-11-25T11:20:50.541Z,9.73
2017-11-25T11:23:19.967Z,6.37
2017-11-25T11:25:49.329Z,5.70
2017-11-25T11:28:18.774Z,6.13
2017-11-25T11:30:48.194Z,9.40
2017-11-25T11:33:17.599Z,5.87
2017-11-25T11:35:47.043Z,9.07
2017-11-25T11:38:16.458Z,7.93
2017-11-25T11:40:45.849Z,11.00
2017-11-25T11:43:15.281Z,10.93
2017-11-25T11:45:44.672Z,18.23
2017-11-25T11:48:14.076Z,14.70
2017-11-25T11:50:43.503Z,10.10
2017-11-25T11:53:12.962Z,11.97
2017-11-25T11:55:42.365Z,14.30
2017-11-25T11:58:11.797Z,9.83
2017-11-25T12:00:41.194Z,11.63
2017-11-25T12:03:10.614Z,10.87
2017-11-25T12:05:40.012Z,9.40
2017-11-25T12:08:09.391Z,9.93
2017-11-25T12:10:38.793Z,13.53
2017-11-25T12:13:08.228Z,11.57
2017-11-25T12:15:37.675Z,13.07
2017-11-25T12:18:07.092Z,15.80
2017-11-25T12:20:36.510Z,12.00
2017-11-25T12:23:05.927Z,12.17
2017-11-25T12:25:35.328Z,11.07
2017-11-25T12:28:04.850Z,16.40
2017-11-25T12:30:34.232Z,16.97
2017-11-25T12:33:03.657Z,10.17
2017-11-25T12:35:33.045Z,15.07
2017-11-25T12:38:02.481Z,9.67
2017-11-25T12:40:31.914Z,9.70
2017-11-25T12:43:01.302Z,8.93
2017-11-25T12:45:30.680Z,9.20
2017-11-25T12:48:00.086Z,9.73
2017-11-25T12:50:29.504Z,11.13
2017-11-25T12:52:58.925Z,5.90
2017-11-25T12:55:28.293Z,7.83
2017-11-25T12:57:57.835Z,4.00
2017-11-25T13:00:27.216Z,3.27
2017-11-25T13:02:56.618Z,6.30
2017-11-25T13:05:26.005Z,6.47
2017-11-25T13:07:55.389Z,6.10
2017-11-25T13:10:24.797Z,17.70
2017-11-25T13:12:54.181Z,8.60
2017-11-25T13:15:23.571Z,8.77
2017-11-25T13:17:52.987Z,12.80
2017-11-25T13:20:22.557Z,12.97
2017-11-25T13:22:52.526Z,10.13
2017-11-25T13:25:22.160Z,8.00
2017-11-25T13:27:51.540Z,7.00
2017-11-25T13:30:20.947Z,10.87
2017-11-25T13:32:50.351Z,17.43
2017-11-25T13:35:20.022Z,12.37
2017-11-25T13:37:49.486Z,10.40
2017-11-25T13:40:18.867Z,13.50
2017-11-25T13:42:48.248Z,12.80
2017-11-25T13:45:17.655Z,20.50
2017-11-25T13:47:47.041Z,13.57
2017-11-25T13:50:16.453Z,16.00
2017-11-25T13:52:45.873Z,24.20
2017-11-25T13:55:15.305Z,12.53
2017-11-25T13:57:44.704Z,15.87
2017-11-25T14:00:14.098Z,14.57
2017-11-25T14:02:43.468Z,15.93
2017-11-25T14:05:12.864Z,34.03
2017-11-25T14:07:42.328Z,15.37
2017-11-25T14:10:11.736Z,18.30
2017-11-25T14:12:41.142Z,24.07
2017-11-25T14:15:10.543Z,19.07
2017-11-25T14:17:39.925Z,27.33
2017-11-25T14:20:09.324Z,26.93
2017-11-25T14:22:38.722Z,24.37
2017-11-25T14:25:08.198Z,29.00
2017-11-25T14:27:37.597Z,30.83
2017-11-25T14:30:07.020Z,28.20
2017-11-25T14:32:36.439Z,28.73
2017-11-25T14:35:05.829Z,27.67
2017-11-25T14:37:35.227Z,27.03
2017-11-25T14:40:04.636Z,30.30
2017-11-25T14:42:34.003Z,31.70
2017-11-25T14:45:03.415Z,24.47
2017-11-25T14:47:32.812Z,25.50
2017-11-25T14:50:02.254Z,32.30
2017-11-25T14:52:31.641Z,29.33
2017-11-25T14:55:01.078Z,28.00
2017-11-25T14:57:30.445Z,26.27
2017-11-25T14:59:59.825Z,30.77
2017-11-25T15:02:29.242Z,49.20
2017-11-25T15:04:58.629Z,32.43
2017-11-25T15:07:28.021Z,25.97
2017-11-25T15:09:57.409Z,28.43
2017-11-25T15:12:26.822Z,29.57
2017-11-25T15:14:56.239Z,22.27
2017-11-25T15:17:25.699Z,27.73
2017-11-25T15:19:55.061Z,21.50
2017-11-25T15:22:24.477Z,22.37
2017-11-25T15:24:53.853Z,25.53
2017-11-25T15:27:23.268Z,28.80
2017-11-25T15:29:52.678Z,23.40
2017-11-25T15:32:22.082Z,25.83
2017-11-25T15:34:51.454Z,22.60
2017-11-25T15:37:20.850Z,22.40
2017-11-25T15:39:50.248Z,21.70
2017-11-25T15:42:19.660Z,33.10
2017-11-25T15:44:49.082Z,19.53
2017-11-25T15:47:18.510Z,16.10
2017-11-25T15:49:47.888Z,14.53
2017-11-25T15:52:17.303Z,22.00
2017-11-25T15:54:46.669Z,49.70
2017-11-25T15:57:16.129Z,46.40
2017-11-25T15:59:45.565Z,31.37
2017-11-25T16:02:14.972Z,31.97
2017-11-25T16:04:44.340Z,19.77
2017-11-25T16:07:13.759Z,16.00
2017-11-25T16:09:43.149Z,14.33
2017-11-25T16:12:12.553Z,14.63
2017-11-25T16:14:41.932Z,14.03
2017-11-25T16:17:11.317Z,16.30
2017-11-25T16:19:40.695Z,15.53
2017-11-25T16:22:10.093Z,14.33
2017-11-25T16:24:39.487Z,17.87
2017-11-25T16:27:09.132Z,15.30
2017-11-25T16:29:38.781Z,14.80
2017-11-25T16:32:08.332Z,17.60
2017-11-25T16:34:38.767Z,16.90
2017-11-25T16:37:08.283Z,16.90
2017-11-25T16:39:37.793Z,15.43
2017-11-25T16:42:07.291Z,11.10
2017-11-25T16:44:36.737Z,17.20
2017-11-25T16:47:06.201Z,14.80
2017-11-25T16:49:35.594Z,18.23
2017-11-25T16:52:04.992Z,24.43
2017-11-25T16:54:34.388Z,21.37
2017-11-25T16:57:03.832Z,21.03
2017-11-25T16:59:33.208Z,19.50
2017-11-25T17:02:02.592Z,12.97
2017-11-25T17:04:32.007Z,17.53
2017-11-25T17:07:01.385Z,16.73
2017-11-25T17:09:30.817Z,21.20
2017-11-25T17:12:00.860Z,17.80
2017-11-25T17:14:30.275Z,12.77
2017-11-25T17:16:59.644Z,16.50
2017-11-25T17:19:29.125Z,16.17
2017-11-25T17:21:58.522Z,20.10
2017-11-25T17:24:27.950Z,17.20
2017-11-25T17:26:57.346Z,15.97
2017-11-25T17:29:27.665Z,16.47
2017-11-25T17:31:57.042Z,19.50
2017-11-25T17:34:26.455Z,19.30
2017-11-25T17:36:55.868Z,19.43
2017-11-25T17:39:25.275Z,15.00
2017-11-25T17:41:54.654Z,13.97
2017-11-25T17:44:24.048Z,20.40
2017-11-25T17:46:53.432Z,17.47
2017-11-25T17:49:22.886Z,16.60
2017-11-25T17:51:52.272Z,16.40
2017-11-25T17:54:21.665Z,19.33
2017-11-25T17:56:51.042Z,23.47
2017-11-25T17:59:20.442Z,19.20
2017-11-25T18:01:50.609Z,19.20
2017-11-25T18:04:20.033Z,18.30
2017-11-25T18:06:49.396Z,28.03
2017-11-25T18:09:18.825Z,24.33
2017-11-25T18:11:49.319Z,23.17
2017-11-25T18:14:18.716Z,23.57
2017-11-25T18:16:48.136Z,19.40
2017-11-25T18:19:17.577Z,22.97
2017-11-25T18:21:46.952Z,20.83
2017-11-25T18:24:16.357Z,20.60
2017-11-25T18:26:45.729Z,27.30
2017-11-25T18:29:15.122Z,23.73
2017-11-25T18:31:44.528Z,39.17
2017-11-25T18:34:13.925Z,28.27
2017-11-25T18:36:43.301Z,27.33
2017-11-25T18:39:12.728Z,24.60
2017-11-25T18:41:42.122Z,41.60
2017-11-25T18:44:11.540Z,39.00
2017-11-25T18:46:40.918Z,34.57
2017-11-25T18:49:10.299Z,35.00
2017-11-25T18:51:39.707Z,32.03
2017-11-25T18:54:09.137Z,35.17
2017-11-25T18:56:38.532Z,42.83
2017-11-25T18:59:07.913Z,49.70
2017-11-25T19:01:37.307Z,56.37
2017-11-25T19:04:07.200Z,37.53
2017-11-25T19:06:36.600Z,77.70
2017-11-25T19:09:05.986Z,49.60
2017-11-25T19:11:35.387Z,85.60
2017-11-25T19:14:04.785Z,48.97
2017-11-25T19:16:35.509Z,39.73
2017-11-25T19:19:04.905Z,35.27
2017-11-25T19:21:34.312Z,43.50
2017-11-25T19:24:03.723Z,55.23
2017-11-25T19:26:33.128Z,39.17
2017-11-25T19:29:02.541Z,43.37
2017-11-25T19:31:31.938Z,39.10
2017-11-25T19:34:01.332Z,36.97
2017-11-25T19:36:31.526Z,41.87
2017-11-25T19:39:02.401Z,39.80
2017-11-25T19:41:31.850Z,40.80
2017-11-25T19:44:01.276Z,36.57
2017-11-25T19:46:30.668Z,36.10
2017-11-25T19:49:00.088Z,42.07
2017-11-25T19:51:29.502Z,40.77
2017-11-25T19:53:58.912Z,45.57
2017-11-25T19:56:28.333Z,39.47
2017-11-25T19:58:57.712Z,42.70
2017-11-25T20:01:27.123Z,44.70
2017-11-25T20:03:56.492Z,47.10
2017-11-25T20:06:25.900Z,44.00
2017-11-25T20:08:55.277Z,44.17
2017-11-25T20:11:24.702Z,35.63
2017-11-25T20:13:54.086Z,47.37
2017-11-25T20:16:23.469Z,41.50
2017-11-25T20:18:52.864Z,42.70
2017-11-25T20:21:22.272Z,39.30
2017-11-25T20:23:51.685Z,51.67
2017-11-25T20:26:21.077Z,44.33
2017-11-25T20:28:50.481Z,39.30
2017-11-25T20:31:19.884Z,40.90
2017-11-25T20:33:49.279Z,42.30
2017-11-25T20:36:18.678Z,40.37
2017-11-25T20:38:48.101Z,42.57
2017-11-25T20:41:17.481Z,40.70
2017-11-25T20:43:46.892Z,30.93
2017-11-25T20:46:16.273Z,39.83
2017-11-25T20:48:45.667Z,34.83
2017-11-25T20:51:15.038Z,32.80
2017-11-25T20:53:44.487Z,33.13
2017-11-25T20:56:13.864Z,32.63
2017-11-25T20:58:43.309Z,29.60
2017-11-25T21:01:12.745Z,26.13
2017-11-25T21:03:42.099Z,30.70
2017-11-25T21:06:11.498Z,26.13
2017-11-25T21:08:40.906Z,28.40
2017-11-25T21:11:10.365Z,21.60
2017-11-25T21:13:39.777Z,25.10
2017-11-25T21:16:09.183Z,22.67
2017-11-25T21:18:38.603Z,20.40
2017-11-25T21:21:07.991Z,22.63
2017-11-25T21:23:37.395Z,22.43
2017-11-25T21:26:06.790Z,23.00
2017-11-25T21:28:36.897Z,19.50
2017-11-25T21:31:06.274Z,23.67
2017-11-25T21:33:35.931Z,22.70
2017-11-25T21:36:05.440Z,20.47
2017-11-25T21:38:34.846Z,17.13
2017-11-25T21:41:04.227Z,27.33
2017-11-25T21:43:33.647Z,15.90
2017-11-25T21:48:58.583Z,19.67
2017-11-25T21:51:27.971Z,19.57
2017-11-25T21:53:57.365Z,17.77
2017-11-25T21:56:26.750Z,20.47
2017-11-25T21:58:56.154Z,17.90
2017-11-25T22:01:25.519Z,18.53
2017-11-25T22:03:54.923Z,19.47
2017-11-25T22:06:24.297Z,22.70
2017-11-25T22:08:54.090Z,20.03
2017-11-25T22:11:23.455Z,19.00
2017-11-25T22:13:52.844Z,21.70
2017-11-25T22:16:22.224Z,22.70
2017-11-25T22:18:51.604Z,28.60
2017-11-25T22:21:20.981Z,21.03
2017-11-25T22:23:50.376Z,22.30
2017-11-25T22:26:19.739Z,23.10
2017-11-25T22:28:49.145Z,25.83
2017-11-25T22:31:18.537Z,22.27
2017-11-25T22:33:47.933Z,20.53
2017-11-25T22:36:17.302Z,24.03
2017-11-25T22:38:48.006Z,25.20
2017-11-25T22:41:17.372Z,22.23
2017-11-25T22:43:46.764Z,24.00
2017-11-25T22:46:16.163Z,24.27
2017-11-25T22:48:45.523Z,24.60
2017-11-25T22:51:14.935Z,26.37
2017-11-25T22:53:45.501Z,30.57
2017-11-25T22:56:14.907Z,26.00
2017-11-25T22:58:44.285Z,27.20
2017-11-25T23:01:13.688Z,25.70
2017-11-25T23:03:43.050Z,26.77
2017-11-25T23:06:12.457Z,25.90
2017-11-25T23:08:41.827Z,25.07
2017-11-25T23:11:11.211Z,30.20
2017-11-25T23:13:40.611Z,24.80
2017-11-25T23:16:10.021Z,28.77
2017-11-25T23:18:39.401Z,29.00
2017-11-25T23:21:08.811Z,24.27
2017-11-25T23:23:38.186Z,30.60
2017-11-25T23:26:07.563Z,26.00
2017-11-25T23:28:36.932Z,26.93
2017-11-25T23:31:07.153Z,22.90
2017-11-25T23:33:36.556Z,25.93
2017-11-25T23:36:05.948Z,26.73
2017-11-25T23:38:35.356Z,25.40
2017-11-25T23:41:04.746Z,22.40
2017-11-25T23:43:34.116Z,23.63
2017-11-25T23:46:03.509Z,24.80
2017-11-25T23:48:32.889Z,25.57
2017-11-25T23:51:02.311Z,29.50
2017-11-25T23:53:32.547Z,25.23
2017-11-25T23:56:01.928Z,24.27
2017-11-25T23:58:31.310Z,23.23
